sensor_id;sensor_type;location;lat;lon;timestamp;P1;durP1;ratioP1;P2;durP2;ratioP2
43150;SDS011;28755;51.478;5.702;2023-11-19T00:01:56;18.15;;;8.98;;
43150;SDS011;28755;51.478;5.702;2023-11-19T00:04:22;12.27;;;8.35;;
43150;SDS011;28755;51.478;5.702;2023-11-19T00:06:48;15.07;;;8.05;;
43150;SDS011;28755;51.478;5.702;2023-11-19T00:09:13;15.02;;;7.85;;
43150;SDS011;28755;51.478;5.702;2023-11-19T00:11:41;14.02;;;7.68;;
43150;SDS011;28755;51.478;5.702;2023-11-19T00:14:07;16.75;;;7.95;;
43150;SDS011;28755;51.478;5.702;2023-11-19T00:16:33;10.95;;;7.25;;
43150;SDS011;28755;51.478;5.702;2023-11-19T00:18:59;11.90;;;7.30;;
43150;SDS011;28755;51.478;5.702;2023-11-19T00:21:25;13.02;;;6.95;;
43150;SDS011;28755;51.478;5.702;2023-11-19T00:23:53;10.95;;;6.20;;
43150;SDS011;28755;51.478;5.702;2023-11-19T00:26:19;9.57;;;5.38;;
43150;SDS011;28755;51.478;5.702;2023-11-19T00:28:45;11.00;;;5.18;;
43150;SDS011;28755;51.478;5.702;2023-11-19T00:31:12;8.55;;;4.57;;
43150;SDS011;28755;51.478;5.702;2023-11-19T00:33:38;10.48;;;4.45;;
43150;SDS011;28755;51.478;5.702;2023-11-19T00:36:04;13.75;;;5.20;;
43150;SDS011;28755;51.478;5.702;2023-11-19T00:38:30;11.02;;;4.55;;
43150;SDS011;28755;51.478;5.702;2023-11-19T00:40:56;10.90;;;4.22;;
43150;SDS011;28755;51.478;5.702;2023-11-19T00:43:21;6.75;;;3.72;;
43150;SDS011;28755;51.478;5.702;2023-11-19T00:45:47;7.40;;;3.35;;
43150;SDS011;28755;51.478;5.702;2023-11-19T00:48:15;6.32;;;3.20;;
43150;SDS011;28755;51.478;5.702;2023-11-19T00:50:41;7.78;;;3.20;;
43150;SDS011;28755;51.478;5.702;2023-11-19T00:53:10;8.80;;;3.20;;
43150;SDS011;28755;51.478;5.702;2023-11-19T00:55:35;9.60;;;3.20;;
43150;SDS011;28755;51.478;5.702;2023-11-19T00:58:01;7.20;;;2.88;;
43150;SDS011;28755;51.478;5.702;2023-11-19T01:00:28;9.88;;;2.90;;
43150;SDS011;28755;51.478;5.702;2023-11-19T01:02:53;6.90;;;2.85;;
43150;SDS011;28755;51.478;5.702;2023-11-19T01:05:20;8.90;;;2.97;;
43150;SDS011;28755;51.478;5.702;2023-11-19T01:07:49;9.37;;;3.20;;
43150;SDS011;28755;51.478;5.702;2023-11-19T01:10:15;9.10;;;3.17;;
43150;SDS011;28755;51.478;5.702;2023-11-19T01:12:41;8.80;;;3.22;;
43150;SDS011;28755;51.478;5.702;2023-11-19T01:15:07;11.23;;;2.47;;
43150;SDS011;28755;51.478;5.702;2023-11-19T01:17:33;13.52;;;2.75;;
43150;SDS011;28755;51.478;5.702;2023-11-19T01:19:59;9.45;;;2.80;;
43150;SDS011;28755;51.478;5.702;2023-11-19T01:22:25;13.90;;;3.42;;
43150;SDS011;28755;51.478;5.702;2023-11-19T01:24:51;8.27;;;2.92;;
43150;SDS011;28755;51.478;5.702;2023-11-19T01:27:17;11.82;;;2.88;;
43150;SDS011;28755;51.478;5.702;2023-11-19T01:29:42;11.07;;;2.92;;
43150;SDS011;28755;51.478;5.702;2023-11-19T01:32:08;14.77;;;2.92;;
43150;SDS011;28755;51.478;5.702;2023-11-19T01:34:34;15.68;;;3.20;;
43150;SDS011;28755;51.478;5.702;2023-11-19T01:37:00;15.68;;;3.00;;
43150;SDS011;28755;51.478;5.702;2023-11-19T01:39:26;16.05;;;3.63;;
43150;SDS011;28755;51.478;5.702;2023-11-19T01:41:52;19.08;;;4.28;;
43150;SDS011;28755;51.478;5.702;2023-11-19T01:44:19;20.58;;;3.38;;
43150;SDS011;28755;51.478;5.702;2023-11-19T01:46:45;12.88;;;2.88;;
43150;SDS011;28755;51.478;5.702;2023-11-19T01:49:15;16.90;;;3.10;;
43150;SDS011;28755;51.478;5.702;2023-11-19T01:51:41;14.20;;;3.63;;
43150;SDS011;28755;51.478;5.702;2023-11-19T01:54:07;17.08;;;2.72;;
43150;SDS011;28755;51.478;5.702;2023-11-19T01:56:33;16.27;;;3.15;;
43150;SDS011;28755;51.478;5.702;2023-11-19T01:59:00;14.90;;;3.58;;
43150;SDS011;28755;51.478;5.702;2023-11-19T02:01:26;16.88;;;4.22;;
43150;SDS011;28755;51.478;5.702;2023-11-19T02:03:52;14.60;;;2.92;;
43150;SDS011;28755;51.478;5.702;2023-11-19T02:06:19;15.10;;;3.33;;
43150;SDS011;28755;51.478;5.702;2023-11-19T02:08:45;17.52;;;2.92;;
43150;SDS011;28755;51.478;5.702;2023-11-19T02:11:10;14.70;;;2.80;;
43150;SDS011;28755;51.478;5.702;2023-11-19T02:13:37;18.50;;;3.38;;
43150;SDS011;28755;51.478;5.702;2023-11-19T02:16:03;17.60;;;3.50;;
43150;SDS011;28755;51.478;5.702;2023-11-19T02:18:30;14.00;;;3.30;;
43150;SDS011;28755;51.478;5.702;2023-11-19T02:20:57;18.42;;;3.38;;
43150;SDS011;28755;51.478;5.702;2023-11-19T02:23:23;18.55;;;3.17;;
43150;SDS011;28755;51.478;5.702;2023-11-19T02:26:05;16.02;;;3.60;;
43150;SDS011;28755;51.478;5.702;2023-11-19T02:28:35;16.60;;;3.13;;
43150;SDS011;28755;51.478;5.702;2023-11-19T02:31:02;12.32;;;3.13;;
43150;SDS011;28755;51.478;5.702;2023-11-19T02:33:29;16.35;;;3.15;;
43150;SDS011;28755;51.478;5.702;2023-11-19T02:35:55;16.95;;;3.38;;
43150;SDS011;28755;51.478;5.702;2023-11-19T02:38:21;17.05;;;3.10;;
43150;SDS011;28755;51.478;5.702;2023-11-19T02:40:47;13.52;;;2.90;;
43150;SDS011;28755;51.478;5.702;2023-11-19T02:43:14;16.17;;;3.15;;
43150;SDS011;28755;51.478;5.702;2023-11-19T02:45:39;17.88;;;3.80;;
43150;SDS011;28755;51.478;5.702;2023-11-19T02:48:05;24.10;;;4.15;;
43150;SDS011;28755;51.478;5.702;2023-11-19T02:50:31;25.95;;;3.83;;
43150;SDS011;28755;51.478;5.702;2023-11-19T02:52:57;26.10;;;4.15;;
43150;SDS011;28755;51.478;5.702;2023-11-19T02:55:23;27.83;;;4.10;;
43150;SDS011;28755;51.478;5.702;2023-11-19T02:57:50;31.67;;;4.55;;
43150;SDS011;28755;51.478;5.702;2023-11-19T03:00:18;24.55;;;4.30;;
43150;SDS011;28755;51.478;5.702;2023-11-19T03:02:48;24.50;;;4.25;;
43150;SDS011;28755;51.478;5.702;2023-11-19T03:05:23;23.27;;;4.20;;
43150;SDS011;28755;51.478;5.702;2023-11-19T03:07:49;27.08;;;4.22;;
43150;SDS011;28755;51.478;5.702;2023-11-19T03:10:15;30.85;;;5.35;;
43150;SDS011;28755;51.478;5.702;2023-11-19T03:12:40;31.05;;;4.45;;
43150;SDS011;28755;51.478;5.702;2023-11-19T03:15:07;31.58;;;4.80;;
43150;SDS011;28755;51.478;5.702;2023-11-19T03:17:35;30.45;;;4.93;;
43150;SDS011;28755;51.478;5.702;2023-11-19T03:20:05;30.58;;;4.85;;
43150;SDS011;28755;51.478;5.702;2023-11-19T03:22:32;37.95;;;4.63;;
43150;SDS011;28755;51.478;5.702;2023-11-19T03:25:00;31.75;;;4.63;;
43150;SDS011;28755;51.478;5.702;2023-11-19T03:27:26;33.83;;;4.20;;
43150;SDS011;28755;51.478;5.702;2023-11-19T03:29:51;31.05;;;5.22;;
43150;SDS011;28755;51.478;5.702;2023-11-19T03:32:17;32.72;;;4.25;;
43150;SDS011;28755;51.478;5.702;2023-11-19T03:34:42;26.20;;;4.18;;
43150;SDS011;28755;51.478;5.702;2023-11-19T03:37:08;33.05;;;4.70;;
43150;SDS011;28755;51.478;5.702;2023-11-19T03:39:34;33.45;;;5.57;;
43150;SDS011;28755;51.478;5.702;2023-11-19T03:41:59;30.05;;;4.28;;
43150;SDS011;28755;51.478;5.702;2023-11-19T03:44:25;34.08;;;4.90;;
43150;SDS011;28755;51.478;5.702;2023-11-19T03:46:52;30.80;;;4.88;;
43150;SDS011;28755;51.478;5.702;2023-11-19T03:49:17;28.30;;;4.63;;
43150;SDS011;28755;51.478;5.702;2023-11-19T03:51:43;40.22;;;5.45;;
43150;SDS011;28755;51.478;5.702;2023-11-19T03:54:09;36.22;;;5.13;;
43150;SDS011;28755;51.478;5.702;2023-11-19T03:56:34;35.33;;;5.00;;
43150;SDS011;28755;51.478;5.702;2023-11-19T03:59:00;34.55;;;5.32;;
43150;SDS011;28755;51.478;5.702;2023-11-19T04:01:25;39.97;;;5.97;;
43150;SDS011;28755;51.478;5.702;2023-11-19T04:03:51;34.17;;;5.72;;
43150;SDS011;28755;51.478;5.702;2023-11-19T04:06:17;40.67;;;5.47;;
43150;SDS011;28755;51.478;5.702;2023-11-19T04:08:42;39.50;;;7.47;;
43150;SDS011;28755;51.478;5.702;2023-11-19T04:11:08;40.33;;;6.18;;
43150;SDS011;28755;51.478;5.702;2023-11-19T04:13:34;32.78;;;4.85;;
43150;SDS011;28755;51.478;5.702;2023-11-19T04:15:59;31.73;;;5.22;;
43150;SDS011;28755;51.478;5.702;2023-11-19T04:18:25;45.58;;;5.65;;
43150;SDS011;28755;51.478;5.702;2023-11-19T04:20:51;26.10;;;4.72;;
43150;SDS011;28755;51.478;5.702;2023-11-19T04:23:16;35.40;;;5.57;;
43150;SDS011;28755;51.478;5.702;2023-11-19T04:25:42;37.60;;;5.88;;
43150;SDS011;28755;51.478;5.702;2023-11-19T04:28:08;37.40;;;5.70;;
43150;SDS011;28755;51.478;5.702;2023-11-19T04:30:33;38.53;;;6.05;;
43150;SDS011;28755;51.478;5.702;2023-11-19T04:33:00;35.70;;;5.60;;
43150;SDS011;28755;51.478;5.702;2023-11-19T04:35:26;39.90;;;5.82;;
43150;SDS011;28755;51.478;5.702;2023-11-19T04:37:51;31.67;;;5.25;;
43150;SDS011;28755;51.478;5.702;2023-11-19T04:40:17;42.22;;;5.60;;
43150;SDS011;28755;51.478;5.702;2023-11-19T04:42:47;32.25;;;5.20;;
43150;SDS011;28755;51.478;5.702;2023-11-19T04:45:13;30.77;;;5.07;;
43150;SDS011;28755;51.478;5.702;2023-11-19T04:47:38;40.28;;;6.35;;
43150;SDS011;28755;51.478;5.702;2023-11-19T04:50:04;37.78;;;5.38;;
43150;SDS011;28755;51.478;5.702;2023-11-19T04:52:30;36.03;;;5.28;;
43150;SDS011;28755;51.478;5.702;2023-11-19T04:54:56;31.85;;;4.90;;
43150;SDS011;28755;51.478;5.702;2023-11-19T04:57:21;37.65;;;6.18;;
43150;SDS011;28755;51.478;5.702;2023-11-19T04:59:47;39.15;;;6.15;;
43150;SDS011;28755;51.478;5.702;2023-11-19T05:02:12;38.28;;;5.97;;
43150;SDS011;28755;51.478;5.702;2023-11-19T05:04:42;34.75;;;5.03;;
43150;SDS011;28755;51.478;5.702;2023-11-19T05:07:09;36.58;;;5.72;;
43150;SDS011;28755;51.478;5.702;2023-11-19T05:09:34;33.53;;;5.20;;
43150;SDS011;28755;51.478;5.702;2023-11-19T05:12:00;33.00;;;5.07;;
43150;SDS011;28755;51.478;5.702;2023-11-19T05:14:26;43.10;;;5.05;;
43150;SDS011;28755;51.478;5.702;2023-11-19T05:16:52;31.13;;;5.55;;
43150;SDS011;28755;51.478;5.702;2023-11-19T05:19:18;37.28;;;5.90;;
43150;SDS011;28755;51.478;5.702;2023-11-19T05:21:44;38.25;;;5.93;;
43150;SDS011;28755;51.478;5.702;2023-11-19T05:24:09;43.75;;;6.72;;
43150;SDS011;28755;51.478;5.702;2023-11-19T05:26:36;35.03;;;4.90;;
43150;SDS011;28755;51.478;5.702;2023-11-19T05:29:02;41.85;;;6.03;;
43150;SDS011;28755;51.478;5.702;2023-11-19T05:31:29;38.67;;;6.38;;
43150;SDS011;28755;51.478;5.702;2023-11-19T05:33:55;36.10;;;5.30;;
43150;SDS011;28755;51.478;5.702;2023-11-19T05:36:20;42.00;;;5.97;;
43150;SDS011;28755;51.478;5.702;2023-11-19T05:38:46;31.48;;;4.93;;
43150;SDS011;28755;51.478;5.702;2023-11-19T05:41:12;43.67;;;6.60;;
43150;SDS011;28755;51.478;5.702;2023-11-19T05:43:37;36.15;;;5.38;;
43150;SDS011;28755;51.478;5.702;2023-11-19T05:46:05;42.25;;;5.88;;
43150;SDS011;28755;51.478;5.702;2023-11-19T05:48:31;39.45;;;5.10;;
43150;SDS011;28755;51.478;5.702;2023-11-19T05:50:58;37.00;;;5.47;;
43150;SDS011;28755;51.478;5.702;2023-11-19T05:53:23;39.28;;;6.25;;
43150;SDS011;28755;51.478;5.702;2023-11-19T05:55:49;42.05;;;6.47;;
43150;SDS011;28755;51.478;5.702;2023-11-19T05:58:23;29.70;;;5.28;;
43150;SDS011;28755;51.478;5.702;2023-11-19T06:00:51;39.78;;;5.80;;
43150;SDS011;28755;51.478;5.702;2023-11-19T06:03:17;44.10;;;6.10;;
43150;SDS011;28755;51.478;5.702;2023-11-19T06:05:45;43.70;;;6.20;;
43150;SDS011;28755;51.478;5.702;2023-11-19T06:08:12;38.25;;;5.95;;
43150;SDS011;28755;51.478;5.702;2023-11-19T06:10:41;38.53;;;5.53;;
43150;SDS011;28755;51.478;5.702;2023-11-19T06:13:07;35.47;;;5.38;;
43150;SDS011;28755;51.478;5.702;2023-11-19T06:15:35;28.67;;;5.35;;
43150;SDS011;28755;51.478;5.702;2023-11-19T06:18:01;47.40;;;6.00;;
43150;SDS011;28755;51.478;5.702;2023-11-19T06:20:28;40.45;;;6.97;;
43150;SDS011;28755;51.478;5.702;2023-11-19T06:22:54;46.30;;;5.75;;
43150;SDS011;28755;51.478;5.702;2023-11-19T06:25:21;36.38;;;5.03;;
43150;SDS011;28755;51.478;5.702;2023-11-19T06:27:48;34.95;;;5.45;;
43150;SDS011;28755;51.478;5.702;2023-11-19T06:30:15;35.00;;;5.57;;
43150;SDS011;28755;51.478;5.702;2023-11-19T06:32:41;39.90;;;6.13;;
43150;SDS011;28755;51.478;5.702;2023-11-19T06:35:07;34.83;;;6.30;;
43150;SDS011;28755;51.478;5.702;2023-11-19T06:37:33;36.03;;;5.93;;
43150;SDS011;28755;51.478;5.702;2023-11-19T06:39:58;38.78;;;6.95;;
43150;SDS011;28755;51.478;5.702;2023-11-19T06:42:24;44.08;;;6.35;;
43150;SDS011;28755;51.478;5.702;2023-11-19T06:44:50;44.05;;;6.88;;
43150;SDS011;28755;51.478;5.702;2023-11-19T06:47:16;37.20;;;5.63;;
43150;SDS011;28755;51.478;5.702;2023-11-19T06:49:45;38.60;;;5.63;;
43150;SDS011;28755;51.478;5.702;2023-11-19T06:52:11;40.22;;;6.03;;
43150;SDS011;28755;51.478;5.702;2023-11-19T06:54:38;32.55;;;5.40;;
43150;SDS011;28755;51.478;5.702;2023-11-19T06:57:04;40.90;;;6.20;;
43150;SDS011;28755;51.478;5.702;2023-11-19T06:59:30;45.30;;;6.28;;
43150;SDS011;28755;51.478;5.702;2023-11-19T07:01:56;41.83;;;6.22;;
43150;SDS011;28755;51.478;5.702;2023-11-19T07:04:21;35.35;;;5.28;;
43150;SDS011;28755;51.478;5.702;2023-11-19T07:06:47;39.53;;;5.80;;
43150;SDS011;28755;51.478;5.702;2023-11-19T07:09:13;35.72;;;5.45;;
43150;SDS011;28755;51.478;5.702;2023-11-19T07:11:39;41.72;;;5.78;;
43150;SDS011;28755;51.478;5.702;2023-11-19T07:14:06;42.13;;;6.32;;
43150;SDS011;28755;51.478;5.702;2023-11-19T07:16:32;37.97;;;6.22;;
43150;SDS011;28755;51.478;5.702;2023-11-19T07:18:59;42.95;;;6.03;;
43150;SDS011;28755;51.478;5.702;2023-11-19T07:21:25;41.10;;;6.25;;
43150;SDS011;28755;51.478;5.702;2023-11-19T07:23:53;36.85;;;5.85;;
43150;SDS011;28755;51.478;5.702;2023-11-19T07:26:19;40.97;;;5.95;;
43150;SDS011;28755;51.478;5.702;2023-11-19T07:28:45;38.40;;;5.82;;
43150;SDS011;28755;51.478;5.702;2023-11-19T07:31:10;39.90;;;5.65;;
43150;SDS011;28755;51.478;5.702;2023-11-19T07:33:37;44.80;;;6.30;;
43150;SDS011;28755;51.478;5.702;2023-11-19T07:36:04;43.63;;;5.80;;
43150;SDS011;28755;51.478;5.702;2023-11-19T07:38:30;45.42;;;5.78;;
43150;SDS011;28755;51.478;5.702;2023-11-19T07:40:56;41.78;;;5.85;;
43150;SDS011;28755;51.478;5.702;2023-11-19T07:43:21;42.40;;;6.45;;
43150;SDS011;28755;51.478;5.702;2023-11-19T07:45:47;42.53;;;6.00;;
43150;SDS011;28755;51.478;5.702;2023-11-19T07:48:13;45.72;;;7.22;;
43150;SDS011;28755;51.478;5.702;2023-11-19T07:50:39;37.90;;;5.72;;
43150;SDS011;28755;51.478;5.702;2023-11-19T07:53:06;38.15;;;5.75;;
43150;SDS011;28755;51.478;5.702;2023-11-19T07:55:32;35.28;;;6.07;;
43150;SDS011;28755;51.478;5.702;2023-11-19T07:57:58;42.60;;;5.93;;
43150;SDS011;28755;51.478;5.702;2023-11-19T08:00:24;43.42;;;5.78;;
43150;SDS011;28755;51.478;5.702;2023-11-19T08:02:49;38.45;;;5.28;;
43150;SDS011;28755;51.478;5.702;2023-11-19T08:05:15;40.47;;;5.53;;
43150;SDS011;28755;51.478;5.702;2023-11-19T08:07:40;52.15;;;7.32;;
43150;SDS011;28755;51.478;5.702;2023-11-19T08:10:06;36.92;;;5.78;;
43150;SDS011;28755;51.478;5.702;2023-11-19T08:12:35;26.60;;;4.75;;
43150;SDS011;28755;51.478;5.702;2023-11-19T08:15:01;33.28;;;5.75;;
43150;SDS011;28755;51.478;5.702;2023-11-19T08:17:30;39.08;;;6.28;;
43150;SDS011;28755;51.478;5.702;2023-11-19T08:19:56;39.10;;;6.57;;
43150;SDS011;28755;51.478;5.702;2023-11-19T08:22:21;40.85;;;6.68;;
43150;SDS011;28755;51.478;5.702;2023-11-19T08:24:47;36.08;;;6.45;;
43150;SDS011;28755;51.478;5.702;2023-11-19T08:27:13;41.78;;;6.25;;
43150;SDS011;28755;51.478;5.702;2023-11-19T08:29:39;33.97;;;5.85;;
43150;SDS011;28755;51.478;5.702;2023-11-19T08:32:05;33.20;;;5.85;;
43150;SDS011;28755;51.478;5.702;2023-11-19T08:34:31;41.75;;;6.68;;
43150;SDS011;28755;51.478;5.702;2023-11-19T08:36:57;32.95;;;6.32;;
43150;SDS011;28755;51.478;5.702;2023-11-19T08:39:23;35.40;;;6.22;;
43150;SDS011;28755;51.478;5.702;2023-11-19T08:41:49;42.28;;;6.35;;
43150;SDS011;28755;51.478;5.702;2023-11-19T08:44:15;41.67;;;6.43;;
43150;SDS011;28755;51.478;5.702;2023-11-19T08:46:48;39.40;;;5.68;;
43150;SDS011;28755;51.478;5.702;2023-11-19T08:49:16;39.05;;;6.15;;
43150;SDS011;28755;51.478;5.702;2023-11-19T08:51:42;31.30;;;5.40;;
43150;SDS011;28755;51.478;5.702;2023-11-19T08:54:08;42.70;;;6.28;;
43150;SDS011;28755;51.478;5.702;2023-11-19T08:56:34;33.03;;;5.00;;
43150;SDS011;28755;51.478;5.702;2023-11-19T08:59:00;26.17;;;5.03;;
43150;SDS011;28755;51.478;5.702;2023-11-19T09:01:26;40.65;;;5.72;;
43150;SDS011;28755;51.478;5.702;2023-11-19T09:03:51;34.72;;;5.65;;
43150;SDS011;28755;51.478;5.702;2023-11-19T09:06:17;35.55;;;5.63;;
43150;SDS011;28755;51.478;5.702;2023-11-19T09:08:43;28.42;;;5.60;;
43150;SDS011;28755;51.478;5.702;2023-11-19T09:11:08;35.60;;;6.35;;
43150;SDS011;28755;51.478;5.702;2023-11-19T09:13:35;30.23;;;6.10;;
43150;SDS011;28755;51.478;5.702;2023-11-19T09:16:01;35.45;;;6.53;;
43150;SDS011;28755;51.478;5.702;2023-11-19T09:18:30;38.20;;;6.47;;
43150;SDS011;28755;51.478;5.702;2023-11-19T09:20:56;31.30;;;5.25;;
43150;SDS011;28755;51.478;5.702;2023-11-19T09:23:22;34.88;;;6.20;;
43150;SDS011;28755;51.478;5.702;2023-11-19T09:25:50;37.65;;;6.15;;
43150;SDS011;28755;51.478;5.702;2023-11-19T09:28:15;35.63;;;6.00;;
43150;SDS011;28755;51.478;5.702;2023-11-19T09:30:41;34.60;;;5.90;;
43150;SDS011;28755;51.478;5.702;2023-11-19T09:33:06;34.40;;;5.40;;
43150;SDS011;28755;51.478;5.702;2023-11-19T09:35:32;35.80;;;6.15;;
43150;SDS011;28755;51.478;5.702;2023-11-19T09:37:58;42.00;;;7.07;;
43150;SDS011;28755;51.478;5.702;2023-11-19T09:40:24;41.03;;;6.50;;
43150;SDS011;28755;51.478;5.702;2023-11-19T09:42:49;35.67;;;5.90;;
43150;SDS011;28755;51.478;5.702;2023-11-19T09:45:16;33.35;;;5.65;;
43150;SDS011;28755;51.478;5.702;2023-11-19T09:47:44;38.10;;;5.95;;
43150;SDS011;28755;51.478;5.702;2023-11-19T09:50:13;33.88;;;5.90;;
43150;SDS011;28755;51.478;5.702;2023-11-19T09:52:42;32.80;;;6.50;;
43150;SDS011;28755;51.478;5.702;2023-11-19T09:55:08;31.77;;;6.10;;
43150;SDS011;28755;51.478;5.702;2023-11-19T09:57:34;34.38;;;5.93;;
43150;SDS011;28755;51.478;5.702;2023-11-19T10:00:03;29.55;;;5.05;;
43150;SDS011;28755;51.478;5.702;2023-11-19T10:02:31;36.00;;;5.63;;
43150;SDS011;28755;51.478;5.702;2023-11-19T10:04:58;38.58;;;6.30;;
43150;SDS011;28755;51.478;5.702;2023-11-19T10:07:24;29.77;;;6.53;;
43150;SDS011;28755;51.478;5.702;2023-11-19T10:09:50;22.77;;;4.47;;
43150;SDS011;28755;51.478;5.702;2023-11-19T10:12:16;35.22;;;5.38;;
43150;SDS011;28755;51.478;5.702;2023-11-19T10:14:41;34.60;;;5.38;;
43150;SDS011;28755;51.478;5.702;2023-11-19T10:17:09;34.63;;;5.40;;
43150;SDS011;28755;51.478;5.702;2023-11-19T10:19:34;37.38;;;5.45;;
43150;SDS011;28755;51.478;5.702;2023-11-19T10:22:04;29.27;;;5.53;;
43150;SDS011;28755;51.478;5.702;2023-11-19T10:24:32;28.88;;;6.13;;
43150;SDS011;28755;51.478;5.702;2023-11-19T10:27:01;27.83;;;5.28;;
43150;SDS011;28755;51.478;5.702;2023-11-19T10:29:29;25.20;;;5.40;;
43150;SDS011;28755;51.478;5.702;2023-11-19T10:31:55;21.70;;;5.13;;
43150;SDS011;28755;51.478;5.702;2023-11-19T10:34:25;27.67;;;6.15;;
43150;SDS011;28755;51.478;5.702;2023-11-19T10:36:52;32.60;;;7.05;;
43150;SDS011;28755;51.478;5.702;2023-11-19T10:39:17;29.75;;;5.65;;
43150;SDS011;28755;51.478;5.702;2023-11-19T10:41:43;30.75;;;6.28;;
43150;SDS011;28755;51.478;5.702;2023-11-19T10:44:09;29.30;;;5.97;;
43150;SDS011;28755;51.478;5.702;2023-11-19T10:46:41;29.08;;;5.93;;
43150;SDS011;28755;51.478;5.702;2023-11-19T10:49:08;31.48;;;5.18;;
43150;SDS011;28755;51.478;5.702;2023-11-19T10:51:35;32.90;;;5.57;;
43150;SDS011;28755;51.478;5.702;2023-11-19T10:54:04;30.63;;;5.28;;
43150;SDS011;28755;51.478;5.702;2023-11-19T10:56:31;32.47;;;5.85;;
43150;SDS011;28755;51.478;5.702;2023-11-19T10:58:58;25.77;;;5.00;;
43150;SDS011;28755;51.478;5.702;2023-11-19T11:01:26;27.75;;;5.28;;
43150;SDS011;28755;51.478;5.702;2023-11-19T11:03:59;24.90;;;4.90;;
43150;SDS011;28755;51.478;5.702;2023-11-19T11:06:26;23.02;;;5.28;;
43150;SDS011;28755;51.478;5.702;2023-11-19T11:08:52;31.38;;;5.30;;
43150;SDS011;28755;51.478;5.702;2023-11-19T11:11:19;27.10;;;5.18;;
43150;SDS011;28755;51.478;5.702;2023-11-19T11:13:49;24.33;;;5.15;;
43150;SDS011;28755;51.478;5.702;2023-11-19T11:16:19;29.77;;;4.95;;
43150;SDS011;28755;51.478;5.702;2023-11-19T11:18:47;30.17;;;4.88;;
43150;SDS011;28755;51.478;5.702;2023-11-19T11:21:15;29.08;;;4.95;;
43150;SDS011;28755;51.478;5.702;2023-11-19T11:24:09;31.45;;;4.90;;
43150;SDS011;28755;51.478;5.702;2023-11-19T11:35:46;27.42;;;5.18;;
43150;SDS011;28755;51.478;5.702;2023-11-19T11:38:21;29.10;;;4.47;;
43150;SDS011;28755;51.478;5.702;2023-11-19T11:43:47;24.38;;;4.15;;
43150;SDS011;28755;51.478;5.702;2023-11-19T11:49:02;25.92;;;5.00;;
43150;SDS011;28755;51.478;5.702;2023-11-19T11:54:10;32.28;;;4.75;;
43150;SDS011;28755;51.478;5.702;2023-11-19T11:59:37;26.05;;;4.65;;
43150;SDS011;28755;51.478;5.702;2023-11-19T12:02:11;21.30;;;3.97;;
43150;SDS011;28755;51.478;5.702;2023-11-19T12:04:39;23.02;;;4.63;;
43150;SDS011;28755;51.478;5.702;2023-11-19T12:07:11;23.70;;;4.40;;
43150;SDS011;28755;51.478;5.702;2023-11-19T12:09:41;21.27;;;4.07;;
43150;SDS011;28755;51.478;5.702;2023-11-19T12:14:59;19.38;;;4.35;;
43150;SDS011;28755;51.478;5.702;2023-11-19T12:19:58;18.48;;;3.75;;
43150;SDS011;28755;51.478;5.702;2023-11-19T12:22:45;21.15;;;3.80;;
43150;SDS011;28755;51.478;5.702;2023-11-19T12:25:14;20.85;;;4.28;;
43150;SDS011;28755;51.478;5.702;2023-11-19T12:27:45;19.15;;;4.45;;
43150;SDS011;28755;51.478;5.702;2023-11-19T12:30:12;27.70;;;4.60;;
43150;SDS011;28755;51.478;5.702;2023-11-19T12:32:38;20.88;;;4.13;;
43150;SDS011;28755;51.478;5.702;2023-11-19T12:35:07;22.17;;;4.43;;
43150;SDS011;28755;51.478;5.702;2023-11-19T12:37:44;23.10;;;5.03;;
43150;SDS011;28755;51.478;5.702;2023-11-19T12:40:14;27.17;;;4.55;;
43150;SDS011;28755;51.478;5.702;2023-11-19T12:42:42;24.15;;;4.50;;
43150;SDS011;28755;51.478;5.702;2023-11-19T12:45:08;30.40;;;4.53;;
43150;SDS011;28755;51.478;5.702;2023-11-19T12:47:37;22.52;;;4.55;;
43150;SDS011;28755;51.478;5.702;2023-11-19T12:50:04;26.30;;;5.07;;
43150;SDS011;28755;51.478;5.702;2023-11-19T12:52:30;21.85;;;4.70;;
43150;SDS011;28755;51.478;5.702;2023-11-19T12:54:56;24.25;;;4.25;;
43150;SDS011;28755;51.478;5.702;2023-11-19T12:57:35;24.80;;;4.57;;
43150;SDS011;28755;51.478;5.702;2023-11-19T13:00:04;23.80;;;5.40;;
43150;SDS011;28755;51.478;5.702;2023-11-19T13:02:53;25.58;;;4.00;;
43150;SDS011;28755;51.478;5.702;2023-11-19T13:05:27;31.83;;;4.30;;
43150;SDS011;28755;51.478;5.702;2023-11-19T13:08:00;28.35;;;4.70;;
43150;SDS011;28755;51.478;5.702;2023-11-19T13:13:18;28.77;;;4.72;;
43150;SDS011;28755;51.478;5.702;2023-11-19T13:15:44;26.17;;;4.28;;
43150;SDS011;28755;51.478;5.702;2023-11-19T13:18:10;26.15;;;4.68;;
43150;SDS011;28755;51.478;5.702;2023-11-19T13:20:37;20.38;;;5.20;;
43150;SDS011;28755;51.478;5.702;2023-11-19T13:23:03;21.15;;;3.95;;
43150;SDS011;28755;51.478;5.702;2023-11-19T13:25:30;23.00;;;3.63;;
43150;SDS011;28755;51.478;5.702;2023-11-19T13:27:57;28.33;;;5.95;;
43150;SDS011;28755;51.478;5.702;2023-11-19T13:30:23;28.00;;;4.97;;
43150;SDS011;28755;51.478;5.702;2023-11-19T13:32:50;27.75;;;5.38;;
43150;SDS011;28755;51.478;5.702;2023-11-19T13:35:16;23.95;;;4.22;;
43150;SDS011;28755;51.478;5.702;2023-11-19T13:37:42;24.38;;;4.45;;
43150;SDS011;28755;51.478;5.702;2023-11-19T13:40:09;25.80;;;3.85;;
43150;SDS011;28755;51.478;5.702;2023-11-19T13:42:38;23.40;;;4.50;;
43150;SDS011;28755;51.478;5.702;2023-11-19T13:45:07;24.35;;;4.40;;
43150;SDS011;28755;51.478;5.702;2023-11-19T13:47:36;21.92;;;3.88;;
43150;SDS011;28755;51.478;5.702;2023-11-19T13:50:14;24.27;;;4.07;;
43150;SDS011;28755;51.478;5.702;2023-11-19T13:52:42;22.15;;;3.88;;
43150;SDS011;28755;51.478;5.702;2023-11-19T13:55:11;24.10;;;4.15;;
43150;SDS011;28755;51.478;5.702;2023-11-19T13:57:38;24.25;;;4.38;;
43150;SDS011;28755;51.478;5.702;2023-11-19T14:00:05;16.77;;;3.33;;
43150;SDS011;28755;51.478;5.702;2023-11-19T14:02:35;17.35;;;3.28;;
43150;SDS011;28755;51.478;5.702;2023-11-19T14:05:01;26.10;;;4.13;;
43150;SDS011;28755;51.478;5.702;2023-11-19T14:07:27;27.98;;;4.78;;
43150;SDS011;28755;51.478;5.702;2023-11-19T14:09:53;25.30;;;4.25;;
43150;SDS011;28755;51.478;5.702;2023-11-19T14:12:19;30.88;;;4.57;;
43150;SDS011;28755;51.478;5.702;2023-11-19T14:14:45;26.02;;;3.95;;
43150;SDS011;28755;51.478;5.702;2023-11-19T14:17:11;33.45;;;5.43;;
43150;SDS011;28755;51.478;5.702;2023-11-19T14:19:37;23.35;;;3.60;;
43150;SDS011;28755;51.478;5.702;2023-11-19T14:22:04;26.90;;;3.83;;
43150;SDS011;28755;51.478;5.702;2023-11-19T14:24:30;22.33;;;3.67;;
43150;SDS011;28755;51.478;5.702;2023-11-19T14:26:56;20.20;;;3.90;;
43150;SDS011;28755;51.478;5.702;2023-11-19T14:29:23;20.50;;;4.05;;
43150;SDS011;28755;51.478;5.702;2023-11-19T14:31:51;24.20;;;3.88;;
43150;SDS011;28755;51.478;5.702;2023-11-19T14:34:17;24.67;;;4.20;;
43150;SDS011;28755;51.478;5.702;2023-11-19T14:36:44;18.92;;;4.32;;
43150;SDS011;28755;51.478;5.702;2023-11-19T14:39:10;22.98;;;3.85;;
43150;SDS011;28755;51.478;5.702;2023-11-19T14:41:35;26.58;;;3.85;;
43150;SDS011;28755;51.478;5.702;2023-11-19T14:44:01;43.15;;;19.45;;
43150;SDS011;28755;51.478;5.702;2023-11-19T14:46:28;28.40;;;4.85;;
43150;SDS011;28755;51.478;5.702;2023-11-19T14:48:54;23.50;;;3.25;;
43150;SDS011;28755;51.478;5.702;2023-11-19T14:51:20;27.02;;;4.50;;
43150;SDS011;28755;51.478;5.702;2023-11-19T14:53:46;25.40;;;4.10;;
43150;SDS011;28755;51.478;5.702;2023-11-19T14:56:12;25.83;;;3.85;;
43150;SDS011;28755;51.478;5.702;2023-11-19T14:58:38;24.77;;;4.07;;
43150;SDS011;28755;51.478;5.702;2023-11-19T15:01:04;23.55;;;4.03;;
43150;SDS011;28755;51.478;5.702;2023-11-19T15:03:30;23.80;;;3.90;;